createdAt,value
2022-10-14T00:02:52.231Z,5.28
2022-10-14T00:05:54.621Z,5.78
2022-10-14T00:09:10.301Z,6.50
2022-10-14T00:12:12.764Z,6.65
2022-10-14T00:15:16.787Z,6.75
2022-10-14T00:18:19.417Z,6.05
2022-10-14T00:21:22.143Z,5.57
2022-10-14T00:24:24.610Z,6.55
2022-10-14T00:27:26.999Z,6.43
2022-10-14T00:30:30.735Z,5.80
2022-10-14T00:33:35.506Z,6.10
2022-10-14T00:36:37.920Z,6.22
2022-10-14T00:39:40.313Z,6.28
2022-10-14T00:42:42.791Z,6.63
2022-10-14T00:45:46.526Z,5.97
2022-10-14T00:48:48.984Z,5.88
2022-10-14T00:51:53.044Z,6.30
2022-10-14T00:54:57.822Z,6.35
2022-10-14T00:58:03.528Z,6.22
2022-10-14T01:01:07.858Z,6.28
2022-10-14T01:04:10.704Z,5.50
2022-10-14T01:07:17.356Z,6.57
2022-10-14T01:10:25.000Z,6.25
2022-10-14T01:13:29.390Z,6.45
2022-10-14T01:16:40.140Z,5.35
2022-10-14T01:19:53.743Z,5.95
2022-10-14T01:22:59.386Z,6.70
2022-10-14T01:26:08.030Z,6.70
2022-10-14T01:29:18.588Z,5.85
2022-10-14T01:32:27.725Z,6.47
2022-10-14T01:35:33.893Z,6.60
2022-10-14T01:38:38.597Z,6.18
2022-10-14T01:41:46.349Z,6.60
2022-10-14T01:44:54.122Z,6.68
2022-10-14T01:47:59.010Z,6.90
2022-10-14T01:51:07.618Z,6.82
2022-10-14T01:54:11.801Z,6.97
2022-10-14T01:57:19.143Z,7.38
2022-10-14T02:00:21.875Z,6.45
2022-10-14T02:03:25.791Z,7.78
2022-10-14T02:06:30.662Z,7.53
2022-10-14T02:09:39.047Z,8.00
2022-10-14T02:12:55.548Z,7.47
2022-10-14T02:16:03.932Z,7.78
2022-10-14T02:19:14.601Z,7.65
2022-10-14T02:22:26.336Z,7.93
2022-10-14T02:25:31.059Z,7.57
2022-10-14T02:28:34.769Z,8.45
2022-10-14T02:31:38.941Z,7.82
2022-10-14T02:34:43.225Z,9.13
2022-10-14T02:37:46.574Z,7.07
2022-10-14T02:40:50.713Z,8.63
2022-10-14T02:43:53.086Z,7.75
2022-10-14T02:46:55.987Z,8.00
2022-10-14T02:49:59.722Z,7.65
2022-10-14T02:53:02.121Z,7.80
2022-10-14T02:56:04.757Z,7.70
2022-10-14T02:59:09.652Z,8.25
2022-10-14T03:02:13.548Z,7.97
2022-10-14T03:05:19.437Z,7.78
2022-10-14T03:08:22.329Z,7.88
2022-10-14T03:11:24.950Z,8.85
2022-10-14T03:14:31.059Z,9.50
2022-10-14T03:17:33.661Z,10.20
2022-10-14T03:20:41.654Z,9.43
2022-10-14T03:23:44.826Z,9.02
2022-10-14T03:26:48.501Z,9.40
2022-10-14T03:29:54.918Z,9.63
2022-10-14T03:32:59.609Z,9.20
2022-10-14T03:36:23.453Z,9.18
2022-10-14T03:39:28.734Z,9.55
2022-10-14T03:42:38.428Z,9.35
2022-10-14T03:45:42.430Z,10.20
2022-10-14T03:48:46.528Z,9.80
2022-10-14T03:51:50.277Z,8.88
2022-10-14T03:54:58.659Z,9.52
2022-10-14T03:58:01.972Z,9.98
2022-10-14T04:01:06.035Z,10.57
2022-10-14T04:04:22.494Z,10.02
2022-10-14T04:07:26.858Z,9.70
2022-10-14T04:10:36.066Z,10.57
2022-10-14T04:13:39.106Z,10.02
2022-10-14T04:16:44.950Z,10.25
2022-10-14T04:19:51.601Z,9.38
2022-10-14T04:23:00.012Z,9.60
2022-10-14T04:26:04.237Z,9.15
2022-10-14T04:29:07.083Z,9.30
2022-10-14T04:32:20.670Z,10.35
2022-10-14T04:35:28.708Z,9.85
2022-10-14T04:38:34.836Z,9.45
2022-10-14T04:41:42.374Z,9.27
2022-10-14T04:44:56.280Z,9.20
2022-10-14T04:48:09.021Z,9.60
2022-10-14T04:51:17.048Z,9.93
2022-10-14T04:54:53.309Z,10.15
2022-10-14T04:58:07.611Z,10.00
2022-10-14T05:01:17.519Z,9.00
2022-10-14T05:04:20.234Z,8.98
2022-10-14T05:07:24.484Z,9.18
2022-10-14T05:10:33.774Z,10.85
2022-10-14T05:13:38.227Z,9.68
2022-10-14T05:16:43.793Z,10.18
2022-10-14T05:20:32.618Z,9.50
2022-10-14T05:23:35.331Z,10.02
2022-10-14T05:26:39.302Z,10.38
2022-10-14T05:29:45.373Z,10.43
2022-10-14T05:32:48.921Z,12.40
2022-10-14T05:35:59.035Z,11.30
2022-10-14T05:39:07.842Z,11.35
2022-10-14T05:42:12.891Z,11.02
2022-10-14T05:45:16.956Z,12.15
2022-10-14T05:48:25.609Z,10.40
2022-10-14T05:51:28.881Z,11.25
2022-10-14T05:54:39.175Z,11.40
2022-10-14T05:57:44.817Z,12.20
2022-10-14T06:00:52.106Z,10.80
2022-10-14T06:03:55.235Z,12.23
2022-10-14T06:06:57.729Z,11.07
2022-10-14T06:10:00.157Z,12.38
2022-10-14T06:13:03.978Z,11.85
2022-10-14T06:16:09.494Z,11.93
2022-10-14T06:19:11.887Z,11.93
2022-10-14T06:22:14.366Z,12.25
2022-10-14T06:25:16.808Z,12.15
2022-10-14T06:28:20.765Z,11.32
2022-10-14T06:31:23.208Z,11.82
2022-10-14T06:34:25.647Z,10.98
2022-10-14T06:37:28.054Z,11.68
2022-10-14T06:40:30.466Z,12.70
2022-10-14T06:43:35.270Z,11.38
2022-10-14T06:46:37.693Z,10.73
2022-10-14T06:49:40.255Z,11.60
2022-10-14T06:52:42.669Z,12.00
2022-10-14T06:55:45.081Z,11.77
2022-10-14T06:58:48.939Z,11.23
2022-10-14T07:01:51.461Z,11.45
2022-10-14T07:04:53.965Z,11.63
2022-10-14T07:07:58.362Z,11.70
2022-10-14T07:11:01.278Z,10.68
2022-10-14T07:14:12.834Z,10.70
2022-10-14T07:17:15.337Z,11.77
2022-10-14T07:20:18.036Z,9.70
2022-10-14T07:23:24.273Z,12.57
2022-10-14T07:26:30.913Z,12.63
2022-10-14T07:29:35.256Z,12.00
2022-10-14T07:32:52.726Z,11.88
2022-10-14T07:35:55.458Z,10.38
2022-10-14T07:42:59.939Z,11.80
2022-10-14T07:46:05.179Z,10.95
2022-10-14T07:49:08.853Z,11.02
2022-10-14T07:52:11.411Z,10.93
2022-10-14T07:55:15.891Z,12.98
2022-10-14T07:58:25.237Z,12.20
2022-10-14T08:01:46.773Z,12.45
2022-10-14T08:04:52.693Z,11.85
2022-10-14T08:07:55.316Z,14.30
2022-10-14T08:11:01.215Z,12.98
2022-10-14T08:14:03.739Z,12.98
2022-10-14T08:17:07.570Z,12.00
2022-10-14T08:20:10.571Z,13.45
2022-10-14T08:23:17.432Z,13.20
2022-10-14T08:26:22.825Z,14.52
2022-10-14T08:29:26.591Z,13.82
2022-10-14T08:32:30.335Z,13.30
2022-10-14T08:35:32.808Z,14.07
2022-10-14T08:38:35.362Z,15.35
2022-10-14T08:45:40.045Z,13.05
2022-10-14T08:48:52.131Z,13.75
2022-10-14T08:51:56.700Z,13.75
2022-10-14T08:55:01.022Z,13.70
2022-10-14T08:58:10.415Z,14.07
2022-10-14T09:01:16.215Z,11.73
2022-10-14T09:04:20.177Z,13.95
2022-10-14T09:07:22.922Z,13.75
2022-10-14T09:10:27.974Z,14.52
2022-10-14T09:13:32.310Z,13.50
2022-10-14T09:16:36.972Z,14.00
2022-10-14T09:39:54.344Z,13.27
2022-10-14T09:42:58.984Z,13.60
2022-10-14T09:46:02.776Z,12.52
2022-10-14T09:49:05.914Z,13.23
2022-10-14T09:52:11.560Z,12.55
2022-10-14T09:55:20.007Z,12.75
2022-10-14T09:58:26.738Z,11.10
2022-10-14T10:01:30.626Z,12.60
2022-10-14T10:04:37.966Z,13.10
2022-10-14T10:07:40.898Z,14.35
2022-10-14T10:11:00.482Z,14.60
2022-10-14T10:14:16.710Z,13.43
2022-10-14T10:17:20.822Z,12.95
2022-10-14T10:20:28.687Z,12.85
2022-10-14T10:23:31.698Z,13.43
2022-10-14T10:26:36.007Z,13.00
2022-10-14T10:29:39.393Z,13.63
2022-10-14T10:32:44.905Z,12.90
2022-10-14T10:36:02.335Z,13.70
2022-10-14T10:39:06.973Z,13.40
2022-10-14T10:42:15.329Z,13.73
2022-10-14T10:45:24.260Z,12.80
2022-10-14T10:48:32.229Z,12.02
2022-10-14T10:51:40.284Z,11.88
2022-10-14T10:54:48.769Z,10.68
2022-10-14T10:58:02.623Z,11.30
2022-10-14T11:01:13.937Z,11.93
2022-10-14T11:04:30.932Z,11.05
2022-10-14T11:07:56.311Z,11.10
2022-10-14T11:11:31.534Z,9.35
2022-10-14T11:14:49.765Z,9.63
2022-10-14T11:17:58.743Z,9.57
2022-10-14T11:21:10.374Z,11.10
2022-10-14T11:27:23.922Z,7.07
2022-10-14T11:30:33.424Z,7.65
2022-10-14T11:33:48.575Z,7.75
2022-10-14T11:36:57.246Z,7.65
2022-10-14T11:40:03.883Z,8.43
2022-10-14T11:43:13.696Z,6.30
2022-10-14T11:46:18.640Z,7.40
2022-10-14T11:49:27.277Z,8.27
2022-10-14T11:52:32.820Z,7.10
2022-10-14T11:55:40.699Z,7.63
2022-10-14T11:58:46.245Z,6.43
2022-10-14T12:01:52.208Z,6.00
2022-10-14T12:04:58.622Z,6.13
2022-10-14T12:08:06.069Z,5.68
2022-10-14T12:11:11.910Z,5.78
2022-10-14T12:14:17.694Z,6.20
2022-10-14T12:17:24.125Z,5.72
2022-10-14T12:20:32.464Z,6.15
2022-10-14T12:27:16.417Z,6.32
2022-10-14T12:30:41.089Z,6.32
2022-10-14T12:33:58.645Z,5.57
2022-10-14T12:37:27.247Z,5.90
2022-10-14T12:40:36.816Z,5.45
2022-10-14T12:43:43.868Z,5.40
2022-10-14T12:46:50.410Z,5.47
2022-10-14T12:49:56.455Z,5.32
2022-10-14T12:53:04.768Z,4.05
2022-10-14T12:56:11.483Z,4.18
2022-10-14T12:59:23.103Z,4.22
2022-10-14T13:02:32.629Z,4.13
2022-10-14T13:05:37.642Z,4.38
2022-10-14T13:08:42.835Z,4.63
2022-10-14T13:11:46.724Z,4.80
2022-10-14T13:14:59.389Z,4.63
2022-10-14T13:18:34.323Z,5.60
2022-10-14T13:21:53.995Z,5.68
2022-10-14T13:25:08.035Z,5.72
2022-10-14T13:28:21.917Z,5.05
2022-10-14T13:31:27.715Z,5.07
2022-10-14T13:34:37.487Z,4.38
2022-10-14T13:37:45.778Z,4.57
2022-10-14T13:40:51.438Z,4.50
2022-10-14T13:43:55.551Z,3.85
2022-10-14T13:47:00.920Z,4.03
2022-10-14T13:50:05.151Z,3.78
2022-10-14T13:53:15.488Z,3.83
2022-10-14T13:56:23.562Z,3.45
2022-10-14T13:59:44.039Z,3.30
2022-10-14T14:02:58.707Z,3.88
2022-10-14T14:06:10.937Z,3.65
2022-10-14T14:09:18.754Z,3.22
2022-10-14T14:12:23.690Z,3.13
2022-10-14T14:15:28.070Z,3.60
2022-10-14T14:18:48.902Z,3.70
2022-10-14T14:22:15.366Z,3.10
2022-10-14T14:25:33.959Z,3.78
2022-10-14T14:28:40.181Z,3.05
2022-10-14T14:35:13.374Z,3.72
2022-10-14T14:38:26.275Z,3.13
2022-10-14T14:41:30.793Z,2.83
2022-10-14T14:44:35.385Z,3.72
2022-10-14T14:47:39.055Z,3.33
2022-10-14T14:50:44.079Z,3.40
2022-10-14T14:53:50.921Z,3.85
2022-10-14T14:56:58.277Z,3.85
2022-10-14T15:00:05.450Z,3.58
2022-10-14T15:03:09.877Z,3.67
2022-10-14T15:06:16.260Z,3.63
2022-10-14T15:09:22.888Z,4.30
2022-10-14T15:12:26.943Z,4.97
2022-10-14T15:15:32.401Z,3.85
2022-10-14T15:18:43.522Z,3.20
2022-10-14T15:21:48.363Z,3.92
2022-10-14T15:24:59.386Z,3.83
2022-10-14T15:28:02.861Z,4.07
2022-10-14T15:31:14.927Z,4.82
2022-10-14T15:34:22.352Z,3.95
2022-10-14T15:37:26.581Z,4.43
2022-10-14T15:40:30.781Z,3.78
2022-10-14T15:43:34.849Z,3.67
2022-10-14T15:46:56.865Z,3.83
2022-10-14T15:50:00.062Z,5.28
2022-10-14T15:53:03.393Z,4.88
2022-10-14T15:56:06.696Z,4.55
2022-10-14T15:59:10.138Z,4.43
2022-10-14T16:02:18.036Z,4.13
2022-10-14T16:05:21.307Z,5.07
2022-10-14T16:08:24.038Z,4.50
2022-10-14T16:11:28.445Z,4.32
2022-10-14T16:14:31.854Z,3.88
2022-10-14T16:17:36.603Z,4.07
2022-10-14T16:20:45.046Z,3.97
2022-10-14T16:23:48.072Z,4.80
2022-10-14T16:26:51.343Z,4.57
2022-10-14T16:29:54.591Z,4.38
2022-10-14T16:32:59.923Z,4.57
2022-10-14T16:36:03.898Z,4.38
2022-10-14T16:39:06.834Z,5.13
2022-10-14T16:42:09.998Z,5.15
2022-10-14T16:45:14.757Z,5.40
2022-10-14T16:48:19.302Z,5.47
2022-10-14T16:51:23.313Z,4.97
2022-10-14T16:54:27.071Z,5.25
2022-10-14T16:57:29.677Z,5.35
2022-10-14T17:00:32.367Z,5.47
2022-10-14T17:03:39.084Z,4.97
2022-10-14T17:06:43.511Z,5.57
2022-10-14T17:09:48.579Z,5.22
2022-10-14T17:12:51.262Z,5.43
2022-10-14T17:15:59.442Z,5.28
2022-10-14T17:19:03.786Z,4.75
2022-10-14T17:22:06.480Z,5.07
2022-10-14T17:25:09.546Z,5.22
2022-10-14T17:28:13.843Z,5.47
2022-10-14T17:31:17.679Z,6.22
2022-10-14T17:34:21.864Z,6.85
2022-10-14T17:37:24.609Z,7.10
2022-10-14T17:40:27.367Z,7.00
2022-10-14T17:43:30.217Z,6.15
2022-10-14T17:46:34.021Z,6.05
2022-10-14T17:49:38.708Z,5.78
2022-10-14T17:52:41.679Z,5.57
2022-10-14T17:55:45.045Z,5.63
2022-10-14T17:58:48.538Z,5.93
2022-10-14T18:02:07.047Z,4.90
2022-10-14T18:05:13.615Z,5.15
2022-10-14T18:08:16.397Z,4.03
2022-10-14T18:11:19.376Z,4.45
2022-10-14T18:14:22.353Z,5.07
2022-10-14T18:17:25.551Z,4.22
2022-10-14T18:20:31.884Z,4.32
2022-10-14T18:23:35.630Z,3.72
2022-10-14T18:26:40.614Z,4.50
2022-10-14T18:29:43.434Z,4.28
2022-10-14T18:32:46.204Z,3.75
2022-10-14T18:35:52.043Z,3.17
2022-10-14T18:38:55.548Z,3.83
2022-10-14T18:41:58.185Z,3.90
2022-10-14T18:45:00.844Z,3.83
2022-10-14T18:48:03.909Z,3.35
2022-10-14T18:51:08.826Z,3.42
2022-10-14T18:54:13.430Z,3.15
2022-10-14T18:57:17.229Z,3.70
2022-10-14T19:00:20.023Z,3.20
2022-10-14T19:03:22.998Z,3.10
2022-10-14T19:06:27.060Z,2.53
2022-10-14T19:09:29.975Z,3.00
2022-10-14T19:12:44.870Z,2.72
2022-10-14T19:15:53.775Z,3.38
2022-10-14T19:18:57.326Z,2.83
2022-10-14T19:22:01.395Z,3.17
2022-10-14T19:25:04.122Z,3.10
2022-10-14T19:28:06.864Z,3.33
2022-10-14T19:31:10.271Z,3.17
2022-10-14T19:34:13.685Z,3.28
2022-10-14T19:37:17.688Z,2.63
2022-10-14T19:40:22.942Z,2.83
2022-10-14T19:43:26.446Z,3.35
2022-10-14T19:46:29.837Z,3.15
2022-10-14T19:49:32.684Z,3.13
2022-10-14T19:52:36.656Z,3.00
2022-10-14T19:55:39.374Z,2.85
2022-10-14T19:58:44.775Z,3.08
2022-10-14T20:01:47.988Z,2.92
2022-10-14T20:04:50.714Z,2.97
2022-10-14T20:07:54.968Z,3.63
2022-10-14T20:10:57.602Z,3.17
2022-10-14T20:14:00.348Z,3.58
2022-10-14T20:17:03.724Z,2.70
2022-10-14T20:20:06.849Z,3.00
2022-10-14T20:23:11.064Z,3.05
2022-10-14T20:26:14.818Z,3.15
2022-10-14T20:29:17.541Z,3.42
2022-10-14T20:32:20.234Z,3.63
2022-10-14T20:35:22.889Z,3.58
2022-10-14T20:38:26.924Z,3.53
2022-10-14T20:41:29.583Z,3.50
2022-10-14T20:44:32.414Z,3.17
2022-10-14T20:47:35.117Z,2.42
2022-10-14T20:50:38.208Z,3.05
2022-10-14T20:53:42.431Z,2.60
2022-10-14T20:56:45.046Z,2.15
2022-10-14T20:59:47.595Z,2.95
2022-10-14T21:02:50.084Z,1.98
2022-10-14T21:05:52.733Z,2.30
2022-10-14T21:08:57.936Z,2.22
2022-10-14T21:12:00.555Z,2.35
2022-10-14T21:15:03.178Z,2.22
2022-10-14T21:18:06.185Z,2.50
2022-10-14T21:21:10.513Z,2.55
2022-10-14T21:24:17.554Z,2.85
2022-10-14T21:27:20.398Z,2.13
2022-10-14T21:30:23.170Z,2.38
2022-10-14T21:33:26.060Z,2.22
2022-10-14T21:36:28.933Z,2.15
2022-10-14T21:39:32.990Z,2.25
2022-10-14T21:42:35.591Z,2.40
2022-10-14T21:45:38.195Z,2.00
2022-10-14T21:48:42.045Z,2.38
2022-10-14T21:51:44.850Z,2.53
2022-10-14T21:54:48.789Z,1.98
2022-10-14T21:57:52.406Z,2.10
2022-10-14T22:01:01.494Z,1.90
2022-10-14T22:04:05.032Z,2.28
2022-10-14T22:07:10.090Z,2.10
2022-10-14T22:10:28.131Z,2.15
2022-10-14T22:13:30.874Z,1.98
2022-10-14T22:16:33.741Z,2.53
2022-10-14T22:19:36.261Z,1.90
2022-10-14T22:22:38.903Z,2.25
2022-10-14T22:25:42.931Z,2.47
2022-10-14T22:28:46.257Z,2.17
2022-10-14T22:31:48.834Z,2.38
2022-10-14T22:34:51.580Z,2.55
2022-10-14T22:37:54.048Z,2.00
2022-10-14T22:41:01.197Z,2.40
2022-10-14T22:44:04.449Z,2.60
2022-10-14T22:47:07.238Z,2.95
2022-10-14T22:50:10.412Z,2.42
2022-10-14T22:53:13.542Z,2.70
2022-10-14T22:56:18.316Z,2.63
2022-10-14T22:59:20.925Z,1.85
2022-10-14T23:02:23.745Z,2.53
2022-10-14T23:05:26.616Z,2.53
2022-10-14T23:08:29.205Z,2.83
2022-10-14T23:11:33.365Z,2.35
2022-10-14T23:14:36.061Z,2.03
2022-10-14T23:17:38.995Z,2.13
2022-10-14T23:20:41.935Z,2.30
2022-10-14T23:23:44.996Z,2.28
2022-10-14T23:26:49.861Z,2.75
2022-10-14T23:29:53.652Z,2.00
2022-10-14T23:32:56.697Z,2.40
2022-10-14T23:36:03.192Z,2.28
2022-10-14T23:39:06.035Z,2.60
2022-10-14T23:42:11.186Z,2.65
2022-10-14T23:45:13.842Z,2.40
2022-10-14T23:48:16.876Z,2.50
2022-10-14T23:51:19.617Z,2.45
2022-10-14T23:54:22.320Z,2.17
2022-10-14T23:57:26.390Z,2.42
